Time;durP1;ratioP1;P1;durP2;ratioP2;P2;SDS_P1;SDS_P2;PMS_P1;PMS_P2;Temp;Humidity;BMP_temperature;BMP_pressure;BME280_temperature;BME280_humidity;BME280_pressure;Samples;Min_cycle;Max_cycle;Signal;HPM_P1;HPM_P2
2022/02/17 00:00:34;;;;;;;0.50;0.30;;;;;;;;;;5063229;28;24438;-57
2022/02/17 00:02:59;;;;;;;0.80;0.30;;;;;;;;;;5067235;28;24936;-57
2022/02/17 00:05:24;;;;;;;0.40;0.30;;;;;;;;;;5068310;28;24418;-56
2022/02/17 00:07:50;;;;;;;0.53;0.30;;;;;;;;;;5068405;28;24438;-57
2022/02/17 00:10:15;;;;;;;0.40;0.30;;;;;;;;;;5068110;28;24406;-57
2022/02/17 00:12:41;;;;;;;0.40;0.30;;;;;;;;;;5067091;28;25044;-57
2022/02/17 00:15:06;;;;;;;0.40;0.30;;;;;;;;;;5067971;28;24988;-58
2022/02/17 00:17:31;;;;;;;0.40;0.30;;;;;;;;;;5063479;28;25030;-57
2022/02/17 00:19:57;;;;;;;0.40;0.30;;;;;;;;;;5059425;28;24411;-57
2022/02/17 00:22:22;;;;;;;0.40;0.30;;;;;;;;;;5067754;28;24492;-58
2022/02/17 00:24:47;;;;;;;0.40;0.30;;;;;;;;;;5061318;28;24998;-56
2022/02/17 00:27:12;;;;;;;0.40;0.30;;;;;;;;;;5066605;28;24425;-57
2022/02/17 00:29:37;;;;;;;0.40;0.30;;;;;;;;;;5065805;28;24705;-58
2022/02/17 00:32:03;;;;;;;0.40;0.30;;;;;;;;;;5059244;28;24827;-57
2022/02/17 00:34:28;;;;;;;0.70;0.30;;;;;;;;;;5064184;28;24806;-57
2022/02/17 00:36:53;;;;;;;0.50;0.30;;;;;;;;;;5067522;28;24489;-58
2022/02/17 00:39:20;;;;;;;0.40;0.30;;;;;;;;;;5064368;28;24845;-58
2022/02/17 00:41:45;;;;;;;0.60;0.30;;;;;;;;;;5066622;28;24411;-58
2022/02/17 00:44:13;;;;;;;1.90;0.30;;;;;;;;;;5064266;28;24599;-58
2022/02/17 00:46:38;;;;;;;0.40;0.30;;;;;;;;;;5065807;28;24585;-58
2022/02/17 00:49:03;;;;;;;0.40;0.30;;;;;;;;;;5067623;28;25020;-59
2022/02/17 00:51:28;;;;;;;0.40;0.30;;;;;;;;;;5067117;28;24406;-58
2022/02/17 00:53:53;;;;;;;0.40;0.30;;;;;;;;;;5067828;28;24399;-58
2022/02/17 00:56:18;;;;;;;1.60;0.30;;;;;;;;;;5056060;28;24973;-56
2022/02/17 00:58:43;;;;;;;0.40;0.30;;;;;;;;;;5047918;28;24481;-57
2022/02/17 01:01:09;;;;;;;0.80;0.40;;;;;;;;;;5067176;28;24513;-56
2022/02/17 01:03:34;;;;;;;0.90;0.30;;;;;;;;;;5052629;28;24968;-56
2022/02/17 01:06:23;;;;;;;0.90;0.30;;;;;;;;;;5059916;28;24802;-57
2022/02/17 01:08:49;;;;;;;0.40;0.40;;;;;;;;;;5054779;28;24538;-57
2022/02/17 01:11:14;;;;;;;1.30;0.40;;;;;;;;;;5066582;28;25098;-57
2022/02/17 01:13:39;;;;;;;0.90;0.30;;;;;;;;;;5066947;28;24449;-56
2022/02/17 01:16:04;;;;;;;0.60;0.40;;;;;;;;;;5067060;28;24479;-57
2022/02/17 01:18:29;;;;;;;1.07;0.37;;;;;;;;;;5059550;28;24987;-57
2022/02/17 01:20:54;;;;;;;0.50;0.40;;;;;;;;;;5073617;28;24418;-57
2022/02/17 01:23:20;;;;;;;0.40;0.30;;;;;;;;;;5067010;28;24487;-57
2022/02/17 01:25:45;;;;;;;0.40;0.30;;;;;;;;;;5064723;28;24518;-57
2022/02/17 01:28:10;;;;;;;0.70;0.30;;;;;;;;;;5056651;28;24480;-57
2022/02/17 01:30:35;;;;;;;0.60;0.30;;;;;;;;;;5067147;28;24435;-57
2022/02/17 01:33:01;;;;;;;0.70;0.40;;;;;;;;;;5066162;28;24524;-57
2022/02/17 01:35:26;;;;;;;0.40;0.30;;;;;;;;;;5066824;28;25118;-58
2022/02/17 01:37:51;;;;;;;0.60;0.30;;;;;;;;;;5059725;28;25057;-58
2022/02/17 01:40:16;;;;;;;1.10;0.30;;;;;;;;;;5061367;28;25055;-58
2022/02/17 01:42:42;;;;;;;1.00;0.30;;;;;;;;;;5066386;28;24406;-58
2022/02/17 01:45:08;;;;;;;0.40;0.30;;;;;;;;;;5060825;28;24905;-58
2022/02/17 01:47:34;;;;;;;0.70;0.40;;;;;;;;;;5057022;28;24434;-57
2022/02/17 01:49:59;;;;;;;1.27;0.40;;;;;;;;;;5065869;28;24415;-58
2022/02/17 01:52:24;;;;;;;0.50;0.30;;;;;;;;;;5062121;28;24416;-58
2022/02/17 01:54:49;;;;;;;1.10;0.30;;;;;;;;;;5065510;28;24410;-58
2022/02/17 01:57:16;;;;;;;0.50;0.30;;;;;;;;;;5065876;28;24430;-58
2022/02/17 01:59:42;;;;;;;0.80;0.30;;;;;;;;;;5065647;28;25063;-58
2022/02/17 02:02:08;;;;;;;1.00;0.30;;;;;;;;;;5061392;28;24831;-58
2022/02/17 02:04:33;;;;;;;0.40;0.30;;;;;;;;;;5065638;28;24418;-58
2022/02/17 02:06:58;;;;;;;0.87;0.30;;;;;;;;;;5065118;28;24431;-58
2022/02/17 02:09:23;;;;;;;0.80;0.40;;;;;;;;;;5066196;28;25540;-57
2022/02/17 02:11:49;;;;;;;0.40;0.30;;;;;;;;;;5057674;28;24419;-57
2022/02/17 02:14:15;;;;;;;0.80;0.30;;;;;;;;;;5060369;28;24566;-57
2022/02/17 02:16:40;;;;;;;0.50;0.30;;;;;;;;;;5057994;28;24513;-57
2022/02/17 02:19:05;;;;;;;1.50;0.40;;;;;;;;;;5064439;28;24572;-57
2022/02/17 02:21:30;;;;;;;0.40;0.40;;;;;;;;;;5062422;28;24770;-58
2022/02/17 02:23:55;;;;;;;0.50;0.37;;;;;;;;;;5066416;28;24473;-57
2022/02/17 02:26:21;;;;;;;0.80;0.30;;;;;;;;;;5065827;28;24976;-57
2022/02/17 02:28:46;;;;;;;0.40;0.30;;;;;;;;;;5063418;28;24860;-57
2022/02/17 02:31:11;;;;;;;0.87;0.30;;;;;;;;;;5063051;28;24439;-57
2022/02/17 02:33:36;;;;;;;0.40;0.40;;;;;;;;;;5058321;28;24430;-58
2022/02/17 02:36:01;;;;;;;0.60;0.40;;;;;;;;;;5065643;28;24561;-58
2022/02/17 02:38:27;;;;;;;0.40;0.33;;;;;;;;;;5063443;28;24964;-58
2022/02/17 02:40:53;;;;;;;0.40;0.30;;;;;;;;;;5064318;28;24418;-57
2022/02/17 02:43:18;;;;;;;0.50;0.40;;;;;;;;;;5064692;28;24509;-57
2022/02/17 02:45:43;;;;;;;0.50;0.33;;;;;;;;;;5064880;28;24430;-57
2022/02/17 02:48:09;;;;;;;0.40;0.30;;;;;;;;;;5065166;28;24446;-56
2022/02/17 02:50:35;;;;;;;0.50;0.40;;;;;;;;;;5065035;28;24548;-56
2022/02/17 02:53:01;;;;;;;0.50;0.40;;;;;;;;;;5063295;28;24587;-57
2022/02/17 02:55:26;;;;;;;0.40;0.30;;;;;;;;;;5064516;28;25032;-58
2022/02/17 02:57:51;;;;;;;0.40;0.30;;;;;;;;;;5065376;28;25074;-56
2022/02/17 03:00:16;;;;;;;0.70;0.40;;;;;;;;;;5065459;28;24815;-57
2022/02/17 03:02:43;;;;;;;0.40;0.30;;;;;;;;;;5065062;28;24773;-57
2022/02/17 03:05:08;;;;;;;0.90;0.30;;;;;;;;;;5065030;28;24415;-57
2022/02/17 03:07:33;;;;;;;3.47;0.50;;;;;;;;;;5065160;28;25165;-57
2022/02/17 03:09:58;;;;;;;1.20;0.60;;;;;;;;;;5067197;28;24844;-58
2022/02/17 03:12:23;;;;;;;0.60;0.40;;;;;;;;;;5068915;28;25251;-58
2022/02/17 03:14:49;;;;;;;0.70;0.50;;;;;;;;;;5065463;28;24411;-57
2022/02/17 03:17:14;;;;;;;0.70;0.40;;;;;;;;;;5065906;28;24418;-57
2022/02/17 03:19:39;;;;;;;0.63;0.40;;;;;;;;;;5065584;28;25235;-58
2022/02/17 03:22:04;;;;;;;0.98;0.40;;;;;;;;;;5065944;28;24414;-57
2022/02/17 03:24:30;;;;;;;0.80;0.40;;;;;;;;;;5068017;28;24456;-57
2022/02/17 03:26:55;;;;;;;1.00;0.50;;;;;;;;;;5066341;28;24439;-58
2022/02/17 03:29:20;;;;;;;0.40;0.30;;;;;;;;;;5070167;28;24525;-57
2022/02/17 03:31:45;;;;;;;1.13;0.50;;;;;;;;;;5066456;28;24490;-57
2022/02/17 03:34:10;;;;;;;0.90;0.60;;;;;;;;;;5062587;28;24460;-56
2022/02/17 03:36:36;;;;;;;0.70;0.40;;;;;;;;;;5069929;28;24813;-57
2022/02/17 03:39:01;;;;;;;0.90;0.50;;;;;;;;;;5068345;28;24507;-57
2022/02/17 03:41:26;;;;;;;1.40;0.60;;;;;;;;;;5067102;28;24442;-57
2022/02/17 03:43:51;;;;;;;1.00;0.60;;;;;;;;;;5065461;28;24407;-58
2022/02/17 03:46:16;;;;;;;1.00;0.60;;;;;;;;;;5068217;28;24500;-57
2022/02/17 03:48:42;;;;;;;0.70;0.50;;;;;;;;;;5068899;28;24434;-57
2022/02/17 03:51:07;;;;;;;0.50;0.50;;;;;;;;;;5068860;28;24418;-56
2022/02/17 03:53:32;;;;;;;1.02;0.93;;;;;;;;;;5080214;28;24418;-55
2022/02/17 03:55:57;;;;;;;0.80;0.68;;;;;;;;;;5063943;28;24797;-56
2022/02/17 04:01:06;;;;;;;2.47;0.77;;;;;;;;;;5066450;28;25017;-56
2022/02/17 04:03:31;;;;;;;1.10;0.60;;;;;;;;;;5075447;28;24503;-55
2022/02/17 04:05:56;;;;;;;0.60;0.60;;;;;;;;;;5066721;28;24833;-56
2022/02/17 04:08:22;;;;;;;2.00;0.57;;;;;;;;;;5068441;28;24418;-56
2022/02/17 04:10:47;;;;;;;1.00;0.70;;;;;;;;;;5067873;28;24474;-56
2022/02/17 04:13:12;;;;;;;1.60;0.65;;;;;;;;;;5067865;28;24439;-56
2022/02/17 04:15:37;;;;;;;0.60;0.60;;;;;;;;;;5065455;28;24430;-56
2022/02/17 04:18:02;;;;;;;2.13;0.53;;;;;;;;;;5070689;28;24964;-56
2022/02/17 04:20:27;;;;;;;1.00;0.50;;;;;;;;;;5065687;28;24959;-56
2022/02/17 04:22:53;;;;;;;1.50;0.70;;;;;;;;;;5059871;28;24443;-56
2022/02/17 04:25:18;;;;;;;1.40;0.90;;;;;;;;;;5063814;28;24779;-56
2022/02/17 04:27:43;;;;;;;1.95;1.02;;;;;;;;;;5066622;28;24492;-56
2022/02/17 04:30:08;;;;;;;2.30;1.07;;;;;;;;;;5066652;28;24796;-55
2022/02/17 04:32:34;;;;;;;2.10;1.17;;;;;;;;;;5067419;28;24423;-55
2022/02/17 04:34:59;;;;;;;3.00;1.20;;;;;;;;;;5068205;28;24453;-56
2022/02/17 04:37:24;;;;;;;2.17;1.00;;;;;;;;;;5062624;28;24831;-56
2022/02/17 04:39:49;;;;;;;1.53;1.00;;;;;;;;;;5061912;28;24461;-56
2022/02/17 04:42:20;;;;;;;3.85;1.17;;;;;;;;;;5079428;28;24453;-57
2022/02/17 04:44:49;;;;;;;2.45;1.10;;;;;;;;;;5068488;28;24924;-57
2022/02/17 04:47:15;;;;;;;1.58;1.10;;;;;;;;;;5067433;28;24938;-56
2022/02/17 04:49:40;;;;;;;4.05;1.10;;;;;;;;;;5066584;28;24513;-56
2022/02/17 04:52:06;;;;;;;2.40;1.20;;;;;;;;;;5064882;28;24950;-56
2022/02/17 04:54:31;;;;;;;2.80;1.00;;;;;;;;;;5066380;28;25054;-56
2022/02/17 04:56:56;;;;;;;1.20;1.10;;;;;;;;;;5069113;28;24774;-56
2022/02/17 04:59:22;;;;;;;4.27;1.10;;;;;;;;;;5065347;28;24984;-56
2022/02/17 05:01:47;;;;;;;4.45;0.93;;;;;;;;;;5065432;28;25224;-56
2022/02/17 05:04:12;;;;;;;3.37;1.27;;;;;;;;;;5060369;28;24507;-57
2022/02/17 05:06:37;;;;;;;1.30;0.60;;;;;;;;;;5055891;28;24419;-55
2022/02/17 05:09:02;;;;;;;1.40;0.70;;;;;;;;;;5069051;28;24418;-56
2022/02/17 05:11:27;;;;;;;3.00;0.93;;;;;;;;;;5067679;28;24924;-56
2022/02/17 05:13:53;;;;;;;2.57;0.80;;;;;;;;;;5067017;28;24998;-56
2022/02/17 05:16:18;;;;;;;1.37;0.90;;;;;;;;;;5066909;28;24419;-56
2022/02/17 05:18:43;;;;;;;4.07;1.20;;;;;;;;;;5065482;28;24441;-55
2022/02/17 05:21:08;;;;;;;1.50;0.80;;;;;;;;;;5068612;28;24421;-57
2022/02/17 05:23:33;;;;;;;2.00;1.00;;;;;;;;;;5069573;28;24423;-57
2022/02/17 05:25:59;;;;;;;2.58;1.17;;;;;;;;;;5067432;28;24488;-57
2022/02/17 05:28:24;;;;;;;2.30;1.10;;;;;;;;;;5064045;28;24953;-57
2022/02/17 05:30:49;;;;;;;1.70;0.63;;;;;;;;;;5056443;28;24423;-57
2022/02/17 05:33:14;;;;;;;1.60;1.00;;;;;;;;;;5061862;28;24493;-57
2022/02/17 05:35:40;;;;;;;2.50;0.90;;;;;;;;;;5068106;28;24429;-57
2022/02/17 05:38:05;;;;;;;1.90;0.80;;;;;;;;;;5066008;28;24484;-57
2022/02/17 05:40:30;;;;;;;0.90;0.50;;;;;;;;;;5063337;28;24480;-58
2022/02/17 05:42:55;;;;;;;1.02;0.60;;;;;;;;;;5062630;28;25028;-57
2022/02/17 05:45:21;;;;;;;3.10;0.70;;;;;;;;;;5067238;28;24443;-57
2022/02/17 05:47:46;;;;;;;1.20;0.50;;;;;;;;;;5062074;28;25106;-57
2022/02/17 05:50:11;;;;;;;1.10;0.50;;;;;;;;;;5053549;28;24411;-58
2022/02/17 05:52:37;;;;;;;1.20;0.52;;;;;;;;;;5066217;28;24414;-57
2022/02/17 05:55:02;;;;;;;0.70;0.70;;;;;;;;;;5066393;28;24538;-57
2022/02/17 05:57:28;;;;;;;1.70;0.87;;;;;;;;;;5063023;28;24416;-58
2022/02/17 05:59:53;;;;;;;1.10;1.00;;;;;;;;;;5062561;28;24452;-58
2022/02/17 06:02:18;;;;;;;2.50;0.80;;;;;;;;;;5062819;28;25095;-58
2022/02/17 06:04:43;;;;;;;1.90;0.90;;;;;;;;;;5066103;28;24419;-57
2022/02/17 06:07:09;;;;;;;1.90;0.80;;;;;;;;;;5065971;28;25143;-58
2022/02/17 06:09:34;;;;;;;2.60;1.02;;;;;;;;;;5064399;28;24426;-58
2022/02/17 06:11:59;;;;;;;1.70;0.77;;;;;;;;;;5065443;28;24453;-58
2022/02/17 06:14:25;;;;;;;1.05;0.60;;;;;;;;;;5065918;28;24415;-58
2022/02/17 06:16:50;;;;;;;2.15;1.08;;;;;;;;;;5051046;28;24431;-57
2022/02/17 06:19:15;;;;;;;1.20;0.90;;;;;;;;;;5059696;28;24494;-58
2022/02/17 06:21:40;;;;;;;1.27;0.90;;;;;;;;;;5060581;28;24541;-58
2022/02/17 06:24:05;;;;;;;1.30;0.90;;;;;;;;;;5060394;28;24418;-58
2022/02/17 06:26:31;;;;;;;2.60;1.20;;;;;;;;;;5062965;28;24794;-58
2022/02/17 06:28:56;;;;;;;1.63;1.00;;;;;;;;;;5044378;28;24469;-58
2022/02/17 06:31:21;;;;;;;1.40;1.00;;;;;;;;;;5056178;28;24421;-61
2022/02/17 06:33:47;;;;;;;2.08;1.10;;;;;;;;;;5060574;28;24828;-58
2022/02/17 06:36:17;;;;;;;2.03;0.90;;;;;;;;;;5064076;28;24415;-58
2022/02/17 06:38:42;;;;;;;2.88;1.30;;;;;;;;;;5058591;28;24891;-58
2022/02/17 06:41:07;;;;;;;1.23;0.85;;;;;;;;;;5056343;28;24407;-58
2022/02/17 06:43:35;;;;;;;1.60;0.80;;;;;;;;;;5058787;28;24445;-58
2022/02/17 06:46:00;;;;;;;2.90;1.00;;;;;;;;;;5063173;28;24446;-58
2022/02/17 06:48:25;;;;;;;1.50;1.20;;;;;;;;;;5059387;28;25081;-58
2022/02/17 06:50:50;;;;;;;2.63;1.10;;;;;;;;;;5063903;28;24510;-58
2022/02/17 06:53:15;;;;;;;2.80;1.40;;;;;;;;;;5055789;28;24547;-58
2022/02/17 06:55:40;;;;;;;3.70;1.30;;;;;;;;;;5061774;28;24415;-58
2022/02/17 06:58:06;;;;;;;2.90;1.30;;;;;;;;;;5055089;28;25014;-58
2022/02/17 07:00:31;;;;;;;5.67;1.80;;;;;;;;;;5063091;28;25250;-58
2022/02/17 07:02:56;;;;;;;3.30;1.40;;;;;;;;;;5060267;28;24427;-58
2022/02/17 07:05:22;;;;;;;2.60;1.23;;;;;;;;;;5061263;28;24976;-58
2022/02/17 07:07:48;;;;;;;3.28;1.50;;;;;;;;;;5063817;28;24457;-58
2022/02/17 07:10:13;;;;;;;2.85;1.50;;;;;;;;;;5064554;28;25116;-58
2022/02/17 07:12:43;;;;;;;2.53;1.53;;;;;;;;;;5053632;28;25181;-58
2022/02/17 07:15:08;;;;;;;3.73;1.60;;;;;;;;;;5057357;28;24411;-60
2022/02/17 07:17:34;;;;;;;3.10;1.87;;;;;;;;;;5058059;28;24453;-58
2022/02/17 07:19:59;;;;;;;4.03;2.10;;;;;;;;;;5055255;28;25011;-58
2022/02/17 07:22:24;;;;;;;2.10;1.42;;;;;;;;;;5063651;28;24416;-53
2022/02/17 07:24:50;;;;;;;5.72;1.80;;;;;;;;;;5057149;28;24981;-53
2022/02/17 07:27:15;;;;;;;2.25;1.45;;;;;;;;;;5057332;28;24515;-53
2022/02/17 07:29:41;;;;;;;2.63;1.33;;;;;;;;;;5063408;28;24406;-54
2022/02/17 07:32:06;;;;;;;4.50;1.42;;;;;;;;;;5050299;28;24481;-53
2022/02/17 07:34:32;;;;;;;4.10;1.50;;;;;;;;;;5050159;28;24561;-55
2022/02/17 07:36:57;;;;;;;2.80;1.03;;;;;;;;;;5055257;28;24930;-53
2022/02/17 07:39:22;;;;;;;1.67;1.20;;;;;;;;;;5051610;28;25747;-55
2022/02/17 07:41:48;;;;;;;1.80;1.10;;;;;;;;;;5059590;28;25056;-54
2022/02/17 07:44:13;;;;;;;3.45;1.23;;;;;;;;;;5066386;28;24430;-54
2022/02/17 07:46:38;;;;;;;1.73;1.10;;;;;;;;;;5068085;28;24468;-54
2022/02/17 07:49:04;;;;;;;2.03;1.20;;;;;;;;;;5063265;28;24947;-54
2022/02/17 07:51:29;;;;;;;3.80;0.90;;;;;;;;;;5065745;28;24975;-54
2022/02/17 07:53:55;;;;;;;2.97;1.00;;;;;;;;;;5064143;28;24841;-54
2022/02/17 07:56:20;;;;;;;1.60;1.00;;;;;;;;;;5065094;28;24514;-55
2022/02/17 07:58:45;;;;;;;2.07;1.00;;;;;;;;;;5056616;28;24976;-52
2022/02/17 08:01:10;;;;;;;3.35;1.13;;;;;;;;;;5065603;28;24485;-53
2022/02/17 08:03:36;;;;;;;2.10;1.10;;;;;;;;;;5064061;28;24423;-54
2022/02/17 08:06:02;;;;;;;2.10;1.23;;;;;;;;;;5064871;28;24437;-54
2022/02/17 08:08:27;;;;;;;1.50;1.10;;;;;;;;;;5049062;28;24453;-55
2022/02/17 08:10:52;;;;;;;3.53;1.40;;;;;;;;;;5065160;28;24452;-54
2022/02/17 08:13:19;;;;;;;4.37;1.80;;;;;;;;;;5065504;28;25160;-54
2022/02/17 08:15:44;;;;;;;2.72;1.50;;;;;;;;;;5063868;28;24382;-55
2022/02/17 08:18:09;;;;;;;3.35;1.90;;;;;;;;;;5065154;28;24975;-54
2022/02/17 08:20:35;;;;;;;3.87;1.90;;;;;;;;;;5061471;28;24911;-54
2022/02/17 08:23:00;;;;;;;4.07;1.75;;;;;;;;;;5050176;28;24438;-52
2022/02/17 08:25:25;;;;;;;3.00;1.40;;;;;;;;;;5065259;28;24484;-54
2022/02/17 08:27:51;;;;;;;1.67;1.10;;;;;;;;;;5063723;28;24563;-53
2022/02/17 08:30:16;;;;;;;3.97;1.45;;;;;;;;;;5062118;28;24489;-53
2022/02/17 08:32:42;;;;;;;4.00;1.40;;;;;;;;;;5044187;28;24937;-53
2022/02/17 08:35:13;;;;;;;2.70;1.30;;;;;;;;;;5045069;28;24423;-53
2022/02/17 08:37:38;;;;;;;4.45;1.52;;;;;;;;;;5044799;28;24398;-54
2022/02/17 08:40:04;;;;;;;2.10;1.15;;;;;;;;;;5050182;28;24525;-53
2022/02/17 08:42:30;;;;;;;3.33;1.20;;;;;;;;;;5064739;28;24486;-54
2022/02/17 08:44:55;;;;;;;4.60;1.50;;;;;;;;;;5056895;28;24526;-53
2022/02/17 08:47:21;;;;;;;3.87;1.57;;;;;;;;;;5045062;28;24783;-54
2022/02/17 08:49:47;;;;;;;3.13;1.55;;;;;;;;;;5050584;28;24429;-53
2022/02/17 08:52:12;;;;;;;3.60;1.50;;;;;;;;;;5064758;28;24463;-53
2022/02/17 08:54:37;;;;;;;3.20;1.40;;;;;;;;;;5060981;28;25058;-53
2022/02/17 08:57:03;;;;;;;2.83;1.30;;;;;;;;;;5046694;28;24494;-54
2022/02/17 08:59:28;;;;;;;3.60;1.40;;;;;;;;;;5048615;28;24968;-53
2022/02/17 09:01:53;;;;;;;2.60;1.20;;;;;;;;;;5066789;28;24924;-53
2022/02/17 09:04:19;;;;;;;2.90;1.30;;;;;;;;;;5067339;28;24390;-54
2022/02/17 09:06:47;;;;;;;2.80;1.30;;;;;;;;;;5066498;28;24940;-54
2022/02/17 09:09:12;;;;;;;3.33;1.65;;;;;;;;;;5066360;28;24936;-54
2022/02/17 09:11:37;;;;;;;3.90;1.50;;;;;;;;;;5066156;28;24406;-55
2022/02/17 09:14:03;;;;;;;5.13;1.80;;;;;;;;;;5065725;28;24497;-53
2022/02/17 09:16:28;;;;;;;3.13;1.20;;;;;;;;;;5066516;28;24498;-53
2022/02/17 09:18:53;;;;;;;4.10;1.40;;;;;;;;;;5066041;28;24502;-54
2022/02/17 09:21:18;;;;;;;3.03;1.30;;;;;;;;;;5066057;28;25263;-53
2022/02/17 09:23:43;;;;;;;3.00;1.40;;;;;;;;;;5065557;28;24407;-53
2022/02/17 09:26:08;;;;;;;4.80;1.80;;;;;;;;;;5064822;28;24439;-52
2022/02/17 09:28:35;;;;;;;3.17;1.60;;;;;;;;;;5067022;28;24518;-53
2022/02/17 09:31:00;;;;;;;4.43;1.67;;;;;;;;;;5059376;28;24415;-52
2022/02/17 09:33:25;;;;;;;3.43;1.40;;;;;;;;;;5052768;28;24438;-52
2022/02/17 09:35:50;;;;;;;2.78;1.35;;;;;;;;;;5065278;28;24414;-53
2022/02/17 09:38:15;;;;;;;2.80;1.40;;;;;;;;;;5062711;28;24782;-52
2022/02/17 09:40:42;;;;;;;3.50;1.10;;;;;;;;;;5063182;28;24410;-53
2022/02/17 09:43:08;;;;;;;2.92;1.00;;;;;;;;;;5066292;28;24842;-53
2022/02/17 09:45:36;;;;;;;2.20;1.23;;;;;;;;;;5064022;28;24522;-52
2022/02/17 09:48:04;;;;;;;2.70;1.20;;;;;;;;;;5066461;28;24399;-51
2022/02/17 09:50:30;;;;;;;3.03;1.20;;;;;;;;;;5059185;28;25015;-51
2022/02/17 09:52:55;;;;;;;2.13;1.08;;;;;;;;;;5055446;28;24423;-53
2022/02/17 09:55:20;;;;;;;5.20;1.70;;;;;;;;;;5064471;28;25136;-53
2022/02/17 09:57:47;;;;;;;2.93;1.30;;;;;;;;;;5077507;28;24406;-54
2022/02/17 10:00:13;;;;;;;5.35;1.50;;;;;;;;;;5066587;28;24514;-53
2022/02/17 10:02:38;;;;;;;2.75;1.10;;;;;;;;;;5076051;28;24506;-54
2022/02/17 10:05:05;;;;;;;1.53;1.10;;;;;;;;;;5066489;28;24500;-53
2022/02/17 10:07:34;;;;;;;3.75;1.20;;;;;;;;;;5077295;28;24740;-53
2022/02/17 10:10:00;;;;;;;5.40;1.20;;;;;;;;;;5063612;28;24469;-53
2022/02/17 10:12:46;;;;;;;3.00;1.40;;;;;;;;;;5075918;28;24980;-53
2022/02/17 10:15:11;;;;;;;2.20;1.13;;;;;;;;;;5077618;28;25014;-54
2022/02/17 10:17:36;;;;;;;3.15;1.30;;;;;;;;;;5075120;28;24940;-54
2022/02/17 10:20:01;;;;;;;4.10;1.50;;;;;;;;;;5068873;28;24932;-55
2022/02/17 10:22:31;;;;;;;4.72;1.75;;;;;;;;;;5088015;28;24409;-54
2022/02/17 10:24:57;;;;;;;3.17;1.45;;;;;;;;;;5083288;28;24492;-54
2022/02/17 10:27:23;;;;;;;4.00;1.40;;;;;;;;;;5075848;28;24820;-53
2022/02/17 10:30:24;;;;;;;3.57;1.30;;;;;;;;;;5075561;28;24541;-54
2022/02/17 10:32:56;;;;;;;2.42;1.40;;;;;;;;;;5007430;28;24427;-54
2022/02/17 10:35:22;;;;;;;1.90;1.10;;;;;;;;;;5070884;28;24491;-54
2022/02/17 10:37:58;;;;;;;3.80;1.30;;;;;;;;;;5070044;28;24536;-54
2022/02/17 10:40:23;;;;;;;3.50;1.40;;;;;;;;;;5080805;28;24430;-55
2022/02/17 10:43:02;;;;;;;2.73;1.00;;;;;;;;;;5067231;28;24444;-55
2022/02/17 10:45:27;;;;;;;3.60;1.08;;;;;;;;;;5076976;28;24801;-54
2022/02/17 10:47:52;;;;;;;2.77;1.10;;;;;;;;;;5075837;28;25087;-54
2022/02/17 10:50:18;;;;;;;3.60;1.13;;;;;;;;;;5081271;28;24398;-54
2022/02/17 10:52:43;;;;;;;1.77;0.98;;;;;;;;;;5067761;28;24387;-54
2022/02/17 10:55:17;;;;;;;3.60;1.30;;;;;;;;;;5081793;28;24863;-54
2022/02/17 10:57:42;;;;;;;3.10;1.33;;;;;;;;;;5089867;28;24444;-54
2022/02/17 11:00:15;;;;;;;2.72;1.20;;;;;;;;;;5078778;28;24410;-54
2022/02/17 11:02:40;;;;;;;4.18;1.30;;;;;;;;;;5069230;28;24438;-55
2022/02/17 11:05:07;;;;;;;3.77;1.60;;;;;;;;;;5069451;28;24973;-54
2022/02/17 11:07:33;;;;;;;2.88;1.20;;;;;;;;;;5069266;28;24403;-53
2022/02/17 11:09:59;;;;;;;2.10;1.20;;;;;;;;;;5069027;28;24411;-53
2022/02/17 11:12:25;;;;;;;4.43;1.43;;;;;;;;;;5081138;28;24815;-53
2022/02/17 11:14:50;;;;;;;4.50;1.60;;;;;;;;;;5087182;28;25007;-54
2022/02/17 11:17:15;;;;;;;5.32;1.20;;;;;;;;;;5087068;28;24761;-53
2022/02/17 11:19:41;;;;;;;2.60;1.60;;;;;;;;;;5088319;28;24736;-53
2022/02/17 11:22:06;;;;;;;2.35;1.20;;;;;;;;;;5088561;28;24467;-53
2022/02/17 11:24:50;;;;;;;3.70;1.20;;;;;;;;;;5078838;28;25061;-54
2022/02/17 11:27:15;;;;;;;3.00;1.33;;;;;;;;;;5069279;28;24426;-52
2022/02/17 11:29:42;;;;;;;2.80;1.20;;;;;;;;;;5069279;28;24421;-52
2022/02/17 11:32:11;;;;;;;2.97;1.40;;;;;;;;;;5067425;28;24879;-52
2022/02/17 11:34:36;;;;;;;3.58;1.17;;;;;;;;;;5069301;28;24429;-54
2022/02/17 11:37:21;;;;;;;2.77;1.40;;;;;;;;;;5068056;28;24481;-53
2022/02/17 11:39:57;;;;;;;4.60;1.60;;;;;;;;;;5056280;28;24487;-53
2022/02/17 11:42:29;;;;;;;2.63;1.07;;;;;;;;;;5066413;28;24406;-53
2022/02/17 11:45:11;;;;;;;2.80;1.20;;;;;;;;;;5067865;28;24482;-54
2022/02/17 11:47:55;;;;;;;2.80;1.50;;;;;;;;;;5078034;28;24448;-53
2022/02/17 11:50:30;;;;;;;3.55;1.17;;;;;;;;;;5068797;28;24399;-53
2022/02/17 11:53:14;;;;;;;3.37;1.20;;;;;;;;;;5068822;28;24406;-54
2022/02/17 11:55:39;;;;;;;2.80;1.60;;;;;;;;;;5048760;28;24934;-54
2022/02/17 11:58:24;;;;;;;3.10;1.47;;;;;;;;;;5048504;28;24651;-54
2022/02/17 12:00:49;;;;;;;3.40;1.70;;;;;;;;;;5047957;28;24474;-54
2022/02/17 12:03:35;;;;;;;4.80;1.60;;;;;;;;;;5049023;28;24513;-53
2022/02/17 12:06:20;;;;;;;4.10;1.70;;;;;;;;;;5048199;28;24502;-54
2022/02/17 12:08:54;;;;;;;3.70;1.23;;;;;;;;;;5051504;28;24424;-54
2022/02/17 12:11:31;;;;;;;4.78;1.52;;;;;;;;;;5046049;28;24434;-53
2022/02/17 12:13:56;;;;;;;2.25;1.38;;;;;;;;;;5062920;28;24407;-53
2022/02/17 12:16:35;;;;;;;1.80;1.20;;;;;;;;;;5068465;28;24820;-54
2022/02/17 12:19:12;;;;;;;3.50;1.40;;;;;;;;;;5068253;28;25105;-54
2022/02/17 12:21:39;;;;;;;2.83;1.48;;;;;;;;;;5068267;28;24426;-54
2022/02/17 12:24:05;;;;;;;3.63;1.50;;;;;;;;;;5069253;28;24956;-54
2022/02/17 12:26:42;;;;;;;4.70;1.50;;;;;;;;;;5071085;28;24438;-54
2022/02/17 12:29:22;;;;;;;4.40;1.60;;;;;;;;;;5052225;28;24771;-54
2022/02/17 12:31:48;;;;;;;3.35;1.77;;;;;;;;;;5047086;28;24396;-54
2022/02/17 12:34:13;;;;;;;3.85;1.60;;;;;;;;;;5051403;28;24556;-53
2022/02/17 12:36:39;;;;;;;2.97;1.25;;;;;;;;;;5067937;28;24391;-54
2022/02/17 12:39:04;;;;;;;4.77;1.70;;;;;;;;;;5067837;28;24481;-53
2022/02/17 12:41:29;;;;;;;5.40;1.70;;;;;;;;;;5067161;28;24913;-54
2022/02/17 12:43:55;;;;;;;2.90;1.60;;;;;;;;;;5066845;28;24415;-53
2022/02/17 12:46:20;;;;;;;5.72;1.83;;;;;;;;;;5067558;28;24580;-53
2022/02/17 12:48:45;;;;;;;2.78;1.60;;;;;;;;;;5067520;28;24481;-53
2022/02/17 12:51:22;;;;;;;3.27;1.87;;;;;;;;;;5064973;28;24398;-54
2022/02/17 12:53:48;;;;;;;5.90;1.80;;;;;;;;;;5066749;28;24540;-53
2022/02/17 12:56:23;;;;;;;3.28;1.70;;;;;;;;;;5067188;28;24423;-53
2022/02/17 12:58:49;;;;;;;4.38;1.70;;;;;;;;;;5067545;28;24398;-53
2022/02/17 13:01:41;;;;;;;5.20;1.80;;;;;;;;;;5067181;28;24820;-53
2022/02/17 13:04:06;;;;;;;4.00;1.60;;;;;;;;;;5063255;28;24437;-54
2022/02/17 13:06:31;;;;;;;3.27;1.50;;;;;;;;;;5058703;28;24800;-54
2022/02/17 13:08:58;;;;;;;4.10;1.30;;;;;;;;;;5045253;28;24395;-53
2022/02/17 13:11:24;;;;;;;5.90;1.40;;;;;;;;;;5047005;28;24388;-54
2022/02/17 13:13:59;;;;;;;7.35;1.63;;;;;;;;;;5050233;28;24464;-54
2022/02/17 13:16:24;;;;;;;4.68;1.50;;;;;;;;;;5067027;28;24419;-54
2022/02/17 13:18:50;;;;;;;3.42;1.30;;;;;;;;;;5066974;28;24445;-55
2022/02/17 13:21:17;;;;;;;4.10;1.50;;;;;;;;;;5066570;28;24887;-53
2022/02/17 13:23:42;;;;;;;4.95;1.50;;;;;;;;;;5066510;28;24468;-54
2022/02/17 13:26:43;;;;;;;3.20;1.50;;;;;;;;;;5066257;28;24427;-54
2022/02/17 13:29:12;;;;;;;3.85;1.63;;;;;;;;;;5024383;28;24427;-52
2022/02/17 13:31:38;;;;;;;3.78;1.45;;;;;;;;;;5058116;28;24484;-53
2022/02/17 13:34:04;;;;;;;3.92;1.35;;;;;;;;;;5066522;28;24406;-53
2022/02/17 13:36:29;;;;;;;2.92;1.30;;;;;;;;;;5066479;28;24419;-53
2022/02/17 13:39:04;;;;;;;3.95;1.30;;;;;;;;;;5066654;28;24448;-54
2022/02/17 13:41:29;;;;;;;3.30;1.40;;;;;;;;;;5066644;28;24948;-52
2022/02/17 13:43:55;;;;;;;3.20;1.30;;;;;;;;;;5066505;28;24394;-52
2022/02/17 13:46:20;;;;;;;3.40;1.20;;;;;;;;;;5066018;28;24449;-54
2022/02/17 13:48:46;;;;;;;2.60;1.30;;;;;;;;;;5066353;28;24394;-53
2022/02/17 13:51:11;;;;;;;3.17;1.20;;;;;;;;;;5066240;28;25023;-52
2022/02/17 13:53:38;;;;;;;3.22;1.10;;;;;;;;;;5066251;28;24953;-52
2022/02/17 13:56:04;;;;;;;3.63;1.30;;;;;;;;;;5066201;28;24950;-50
2022/02/17 13:58:31;;;;;;;3.10;1.17;;;;;;;;;;5066509;28;24460;-53
2022/02/17 14:00:57;;;;;;;3.00;1.30;;;;;;;;;;5064026;28;24537;-51
2022/02/17 14:03:29;;;;;;;3.50;1.30;;;;;;;;;;5066590;28;24482;-50
2022/02/17 14:05:55;;;;;;;2.67;1.20;;;;;;;;;;5066327;28;24422;-53
2022/02/17 14:08:21;;;;;;;4.03;1.33;;;;;;;;;;5066537;28;24427;-53
2022/02/17 14:10:46;;;;;;;2.75;1.25;;;;;;;;;;5066325;28;24745;-52
2022/02/17 14:13:11;;;;;;;3.90;1.07;;;;;;;;;;5065720;28;24552;-53
2022/02/17 14:15:37;;;;;;;2.00;0.90;;;;;;;;;;5066374;28;24478;-52
2022/02/17 14:18:02;;;;;;;3.40;1.40;;;;;;;;;;5066203;28;24765;-52
2022/02/17 14:20:27;;;;;;;3.30;1.20;;;;;;;;;;5066741;28;24398;-53
2022/02/17 14:22:52;;;;;;;9.30;4.13;;;;;;;;;;5065897;28;24538;-55
2022/02/17 14:25:18;;;;;;;3.60;1.40;;;;;;;;;;5065971;28;24418;-56
2022/02/17 14:27:43;;;;;;;3.50;1.10;;;;;;;;;;5064796;28;24455;-56
2022/02/17 14:30:08;;;;;;;4.33;1.40;;;;;;;;;;5066204;28;24437;-57
2022/02/17 14:32:34;;;;;;;4.13;1.50;;;;;;;;;;5065714;28;24398;-56
2022/02/17 14:35:11;;;;;;;2.78;1.30;;;;;;;;;;5066332;28;24410;-56
2022/02/17 14:37:44;;;;;;;3.88;1.25;;;;;;;;;;5065468;28;24458;-55
2022/02/17 14:40:11;;;;;;;3.22;1.35;;;;;;;;;;5066125;28;24506;-56
2022/02/17 14:42:36;;;;;;;3.58;1.50;;;;;;;;;;5065785;28;24445;-55